sensor_id;sensor_type;location;lat;lon;timestamp;pressure;altitude;pressure_sealevel;temperature;humidity
31873;BME280;22407;42.820;23.374;2022-08-19T08:45:29;95497.23;;;32.34;35.69
31873;BME280;22407;42.820;23.374;2022-08-19T08:48:02;95498.07;;;32.37;35.23
31873;BME280;22407;42.820;23.374;2022-08-19T08:50:37;95481.28;;;32.64;35.78
31873;BME280;22407;42.820;23.374;2022-08-19T08:53:06;95485.38;;;32.69;35.70
31873;BME280;22407;42.820;23.374;2022-08-19T08:55:36;95480.47;;;32.63;34.91
31873;BME280;22407;42.820;23.374;2022-08-19T08:59:12;95473.50;;;32.84;34.32
31873;BME280;22407;42.820;23.374;2022-08-19T09:00:48;95472.91;;;32.97;34.68
31873;BME280;22407;42.820;23.374;2022-08-19T09:03:23;95470.83;;;33.31;34.21
31873;BME280;22407;42.820;23.374;2022-08-19T09:06:01;95462.42;;;33.54;33.03
31873;BME280;22407;42.820;23.374;2022-08-19T09:11:30;95457.48;;;33.54;33.89
31873;BME280;22407;42.820;23.374;2022-08-19T09:14:06;95456.30;;;33.67;33.19
31873;BME280;22407;42.820;23.374;2022-08-19T09:16:32;95448.94;;;33.92;33.42
31873;BME280;22407;42.820;23.374;2022-08-19T09:19:04;95441.89;;;33.81;32.37
31873;BME280;22407;42.820;23.374;2022-08-19T09:21:34;95438.77;;;33.90;33.09
31873;BME280;22407;42.820;23.374;2022-08-19T09:24:04;95433.55;;;34.23;32.20
31873;BME280;22407;42.820;23.374;2022-08-19T09:26:34;95432.09;;;34.28;31.74
31873;BME280;22407;42.820;23.374;2022-08-19T09:29:03;95427.51;;;34.45;31.34
31873;BME280;22407;42.820;23.374;2022-08-19T09:31:33;95434.39;;;34.71;30.92
31873;BME280;22407;42.820;23.374;2022-08-19T09:34:02;95429.48;;;34.42;30.90
31873;BME280;22407;42.820;23.374;2022-08-19T09:36:36;95420.86;;;34.48;30.84
31873;BME280;22407;42.820;23.374;2022-08-19T09:39:12;95422.34;;;34.89;29.89
31873;BME280;22407;42.820;23.374;2022-08-19T09:41:40;95413.19;;;35.12;29.17
31873;BME280;22407;42.820;23.374;2022-08-19T09:44:09;95412.03;;;35.19;28.08
31873;BME280;22407;42.820;23.374;2022-08-19T09:46:39;95410.71;;;34.92;28.28
31873;BME280;22407;42.820;23.374;2022-08-19T09:49:11;95411.64;;;34.85;27.90
31873;BME280;22407;42.820;23.374;2022-08-19T09:51:39;95408.38;;;35.23;27.71
31873;BME280;22407;42.820;23.374;2022-08-19T09:54:08;95398.36;;;35.46;27.15
31873;BME280;22407;42.820;23.374;2022-08-19T09:56:37;95398.42;;;35.79;26.10
31873;BME280;22407;42.820;23.374;2022-08-19T09:59:06;95399.80;;;35.96;26.55
31873;BME280;22407;42.820;23.374;2022-08-19T10:01:35;95403.67;;;35.59;27.20
31873;BME280;22407;42.820;23.374;2022-08-19T10:04:04;95393.84;;;35.53;27.26
31873;BME280;22407;42.820;23.374;2022-08-19T10:06:37;95390.10;;;35.63;27.22
31873;BME280;22407;42.820;23.374;2022-08-19T10:09:09;95389.29;;;35.62;28.17
31873;BME280;22407;42.820;23.374;2022-08-19T10:11:40;95377.05;;;35.85;25.76
31873;BME280;22407;42.820;23.374;2022-08-19T10:14:09;95376.97;;;36.04;26.88
31873;BME280;22407;42.820;23.374;2022-08-19T10:16:39;95369.64;;;36.29;26.70
31873;BME280;22407;42.820;23.374;2022-08-19T10:19:09;95373.41;;;36.47;26.48
31873;BME280;22407;42.820;23.374;2022-08-19T10:21:38;95370.10;;;36.48;25.83
31873;BME280;22407;42.820;23.374;2022-08-19T10:24:07;95371.67;;;36.07;25.83
31873;BME280;22407;42.820;23.374;2022-08-19T10:26:38;95371.59;;;36.12;25.79
31873;BME280;22407;42.820;23.374;2022-08-19T10:29:09;95367.33;;;36.34;26.14
31873;BME280;22407;42.820;23.374;2022-08-19T10:31:39;95359.70;;;36.70;25.20
31873;BME280;22407;42.820;23.374;2022-08-19T10:34:07;95351.84;;;36.63;25.48
31873;BME280;22407;42.820;23.374;2022-08-19T10:36:37;95352.44;;;36.74;25.04
31873;BME280;22407;42.820;23.374;2022-08-19T10:39:08;95351.06;;;36.85;24.26
31873;BME280;22407;42.820;23.374;2022-08-19T10:41:39;95354.12;;;37.23;25.10
31873;BME280;22407;42.820;23.374;2022-08-19T10:44:12;95349.59;;;37.27;24.60
31873;BME280;22407;42.820;23.374;2022-08-19T10:46:42;95348.84;;;37.35;24.26
31873;BME280;22407;42.820;23.374;2022-08-19T10:49:12;95349.66;;;37.13;24.67
31873;BME280;22407;42.820;23.374;2022-08-19T10:51:41;95341.50;;;37.05;25.08
31873;BME280;22407;42.820;23.374;2022-08-19T10:54:28;95341.30;;;37.27;25.11
31873;BME280;22407;42.820;23.374;2022-08-19T10:57:16;95328.08;;;37.12;24.23
31873;BME280;22407;42.820;23.374;2022-08-19T10:59:45;95336.04;;;37.03;24.99
31873;BME280;22407;42.820;23.374;2022-08-19T11:02:14;95335.45;;;37.28;24.83
31873;BME280;22407;42.820;23.374;2022-08-19T11:04:43;95338.42;;;37.32;24.14
31873;BME280;22407;42.820;23.374;2022-08-19T11:07:12;95343.57;;;37.47;23.88
31873;BME280;22407;42.820;23.374;2022-08-19T11:09:42;95330.17;;;37.75;24.62
31873;BME280;22407;42.820;23.374;2022-08-19T11:12:10;95330.95;;;37.98;22.69
31873;BME280;22407;42.820;23.374;2022-08-19T11:14:40;95329.91;;;37.85;22.88
31873;BME280;22407;42.820;23.374;2022-08-19T11:17:09;95325.86;;;37.60;23.09
31873;BME280;22407;42.820;23.374;2022-08-19T11:19:39;95324.32;;;37.53;23.99
31873;BME280;22407;42.820;23.374;2022-08-19T11:22:10;95325.05;;;37.59;23.67
31873;BME280;22407;42.820;23.374;2022-08-19T11:24:38;95326.03;;;37.41;23.66
31873;BME280;22407;42.820;23.374;2022-08-19T11:27:09;95318.23;;;37.43;23.28
31873;BME280;22407;42.820;23.374;2022-08-19T11:29:38;95306.09;;;37.52;23.56
31873;BME280;22407;42.820;23.374;2022-08-19T11:32:09;95307.45;;;37.75;23.63
31873;BME280;22407;42.820;23.374;2022-08-19T11:34:39;95312.14;;;37.97;23.76
31873;BME280;22407;42.820;23.374;2022-08-19T11:37:08;95308.47;;;38.10;24.35
31873;BME280;22407;42.820;23.374;2022-08-19T11:39:37;95297.22;;;37.76;24.06
31873;BME280;22407;42.820;23.374;2022-08-19T11:42:07;95294.72;;;37.65;23.27
31873;BME280;22407;42.820;23.374;2022-08-19T11:44:54;95297.80;;;37.84;23.08
31873;BME280;22407;42.820;23.374;2022-08-19T11:47:23;95295.76;;;37.56;23.36
31873;BME280;22407;42.820;23.374;2022-08-19T11:49:52;95291.69;;;37.30;23.54
31873;BME280;22407;42.820;23.374;2022-08-19T11:52:21;95295.39;;;37.15;24.84
31873;BME280;22407;42.820;23.374;2022-08-19T11:54:50;95288.47;;;37.37;23.85
31873;BME280;22407;42.820;23.374;2022-08-19T11:57:19;95286.03;;;37.58;24.18
31873;BME280;22407;42.820;23.374;2022-08-19T11:59:49;95283.19;;;37.49;24.06
31873;BME280;22407;42.820;23.374;2022-08-19T12:02:19;95275.98;;;37.82;23.91
31873;BME280;22407;42.820;23.374;2022-08-19T12:04:49;95278.17;;;38.14;23.64
31873;BME280;22407;42.820;23.374;2022-08-19T12:07:18;95270.96;;;38.24;22.50
31873;BME280;22407;42.820;23.374;2022-08-19T12:09:47;95268.80;;;38.12;23.18
31873;BME280;22407;42.820;23.374;2022-08-19T12:12:16;95275.37;;;37.74;23.08
31873;BME280;22407;42.820;23.374;2022-08-19T12:14:45;95271.65;;;37.79;22.82
31873;BME280;22407;42.820;23.374;2022-08-19T12:17:14;95274.57;;;38.05;22.84
31873;BME280;22407;42.820;23.374;2022-08-19T12:19:42;95264.11;;;38.22;22.64
31873;BME280;22407;42.820;23.374;2022-08-19T12:22:11;95267.53;;;37.87;22.13
31873;BME280;22407;42.820;23.374;2022-08-19T12:24:40;95259.02;;;37.95;22.11
31873;BME280;22407;42.820;23.374;2022-08-19T12:27:10;95249.80;;;38.08;22.11
31873;BME280;22407;42.820;23.374;2022-08-19T12:29:39;95254.61;;;38.05;22.16
31873;BME280;22407;42.820;23.374;2022-08-19T12:32:09;95252.44;;;38.14;23.84
31873;BME280;22407;42.820;23.374;2022-08-19T12:34:38;95248.62;;;38.29;22.10
31873;BME280;22407;42.820;23.374;2022-08-19T12:37:07;95250.38;;;38.37;22.99
31873;BME280;22407;42.820;23.374;2022-08-19T12:39:39;95248.62;;;38.29;22.62
31873;BME280;22407;42.820;23.374;2022-08-19T12:42:11;95237.65;;;38.44;21.77
31873;BME280;22407;42.820;23.374;2022-08-19T12:44:42;95243.49;;;38.54;22.68
31873;BME280;22407;42.820;23.374;2022-08-19T12:47:12;95241.53;;;38.63;22.41
31873;BME280;22407;42.820;23.374;2022-08-19T12:49:44;95237.22;;;38.22;21.46
31873;BME280;22407;42.820;23.374;2022-08-19T12:52:14;95234.52;;;38.20;21.92
31873;BME280;22407;42.820;23.374;2022-08-19T12:54:43;95224.53;;;38.30;22.51
31873;BME280;22407;42.820;23.374;2022-08-19T12:57:12;95229.68;;;38.43;21.94
31873;BME280;22407;42.820;23.374;2022-08-19T12:59:43;95226.70;;;38.22;22.09
31873;BME280;22407;42.820;23.374;2022-08-19T13:02:12;95225.62;;;38.00;22.55
31873;BME280;22407;42.820;23.374;2022-08-19T13:04:41;95222.20;;;37.75;23.39
31873;BME280;22407;42.820;23.374;2022-08-19T13:07:09;95225.32;;;37.62;23.19
31873;BME280;22407;42.820;23.374;2022-08-19T13:09:38;95222.13;;;37.77;22.62
31873;BME280;22407;42.820;23.374;2022-08-19T13:12:09;95220.70;;;38.08;23.05
31873;BME280;22407;42.820;23.374;2022-08-19T13:14:39;95214.39;;;38.25;22.16
31873;BME280;22407;42.820;23.374;2022-08-19T13:17:09;95217.16;;;38.54;22.64
31873;BME280;22407;42.820;23.374;2022-08-19T13:19:39;95213.31;;;38.61;21.56
31873;BME280;22407;42.820;23.374;2022-08-19T13:22:08;95213.25;;;38.18;22.84
31873;BME280;22407;42.820;23.374;2022-08-19T13:24:37;95209.76;;;38.03;23.38
31873;BME280;22407;42.820;23.374;2022-08-19T13:27:06;95208.26;;;38.17;22.65
31873;BME280;22407;42.820;23.374;2022-08-19T13:29:35;95202.91;;;38.29;22.47
31873;BME280;22407;42.820;23.374;2022-08-19T13:32:22;95212.71;;;38.07;22.59
31873;BME280;22407;42.820;23.374;2022-08-19T13:35:08;95208.20;;;38.20;22.37
31873;BME280;22407;42.820;23.374;2022-08-19T13:37:37;95206.77;;;38.11;22.68
31873;BME280;22407;42.820;23.374;2022-08-19T13:40:20;95204.66;;;38.08;21.98
31873;BME280;22407;42.820;23.374;2022-08-19T13:42:50;95207.95;;;38.27;22.04
31873;BME280;22407;42.820;23.374;2022-08-19T13:45:21;95201.20;;;38.22;22.07
31873;BME280;22407;42.820;23.374;2022-08-19T13:47:53;95197.26;;;38.15;22.02
31873;BME280;22407;42.820;23.374;2022-08-19T13:50:25;95201.48;;;38.49;22.10
31873;BME280;22407;42.820;23.374;2022-08-19T13:52:55;95194.54;;;38.32;21.96
31873;BME280;22407;42.820;23.374;2022-08-19T13:55:25;95179.84;;;38.23;21.99
31873;BME280;22407;42.820;23.374;2022-08-19T13:57:57;95185.24;;;38.28;22.83
31873;BME280;22407;42.820;23.374;2022-08-19T14:00:28;95188.70;;;38.05;22.35
31873;BME280;22407;42.820;23.374;2022-08-19T14:02:58;95195.48;;;37.70;22.80
31873;BME280;22407;42.820;23.374;2022-08-19T14:05:28;95187.77;;;37.78;22.97
31873;BME280;22407;42.820;23.374;2022-08-19T14:07:58;95182.01;;;38.06;21.95
31873;BME280;22407;42.820;23.374;2022-08-19T14:10:27;95182.20;;;38.27;22.04
31873;BME280;22407;42.820;23.374;2022-08-19T14:13:01;95180.16;;;38.21;22.92
31873;BME280;22407;42.820;23.374;2022-08-19T14:15:30;95176.47;;;38.06;23.34
31873;BME280;22407;42.820;23.374;2022-08-19T14:17:59;95178.92;;;38.07;23.20
31873;BME280;22407;42.820;23.374;2022-08-19T14:20:28;95180.86;;;38.07;23.52
31873;BME280;22407;42.820;23.374;2022-08-19T14:22:57;95179.29;;;38.03;23.03
31873;BME280;22407;42.820;23.374;2022-08-19T14:25:29;95179.42;;;38.09;23.32
31873;BME280;22407;42.820;23.374;2022-08-19T14:27:58;95171.83;;;38.12;24.13
31873;BME280;22407;42.820;23.374;2022-08-19T14:30:28;95177.41;;;38.01;23.27
31873;BME280;22407;42.820;23.374;2022-08-19T14:32:57;95171.67;;;37.89;22.62
31873;BME280;22407;42.820;23.374;2022-08-19T14:35:26;95177.89;;;37.95;22.71
31873;BME280;22407;42.820;23.374;2022-08-19T14:37:54;95174.25;;;37.45;23.30
31873;BME280;22407;42.820;23.374;2022-08-19T14:40:25;95173.94;;;37.16;24.04
31873;BME280;22407;42.820;23.374;2022-08-19T14:43:00;95170.76;;;37.31;23.61
31873;BME280;22407;42.820;23.374;2022-08-19T14:45:26;95176.22;;;37.33;24.25
31873;BME280;22407;42.820;23.374;2022-08-19T14:47:54;95163.19;;;37.25;23.64
31873;BME280;22407;42.820;23.374;2022-08-19T14:50:22;95169.03;;;37.24;23.42
31873;BME280;22407;42.820;23.374;2022-08-19T14:52:56;95163.22;;;37.34;23.34
31873;BME280;22407;42.820;23.374;2022-08-19T14:55:20;95163.55;;;37.52;22.94
31873;BME280;22407;42.820;23.374;2022-08-19T14:57:48;95159.42;;;37.21;23.94
31873;BME280;22407;42.820;23.374;2022-08-19T15:00:17;95154.96;;;37.11;24.18
31873;BME280;22407;42.820;23.374;2022-08-19T15:02:45;95158.70;;;36.59;24.86
31873;BME280;22407;42.820;23.374;2022-08-19T15:05:13;95159.95;;;36.42;24.82
31873;BME280;22407;42.820;23.374;2022-08-19T15:07:42;95169.34;;;36.29;25.72
31873;BME280;22407;42.820;23.374;2022-08-19T15:10:11;95157.12;;;36.56;25.49
31873;BME280;22407;42.820;23.374;2022-08-19T15:12:39;95160.98;;;36.68;24.64
31873;BME280;22407;42.820;23.374;2022-08-19T15:15:10;95161.32;;;36.67;24.48
31873;BME280;22407;42.820;23.374;2022-08-19T15:17:40;95160.61;;;36.72;23.84
31873;BME280;22407;42.820;23.374;2022-08-19T15:20:11;95161.94;;;36.50;24.01
31873;BME280;22407;42.820;23.374;2022-08-19T15:22:41;95158.77;;;36.20;24.38
31873;BME280;22407;42.820;23.374;2022-08-19T15:25:11;95165.12;;;35.93;24.77
31873;BME280;22407;42.820;23.374;2022-08-19T15:27:39;95167.70;;;35.76;24.66
31873;BME280;22407;42.820;23.374;2022-08-19T15:30:10;95162.34;;;35.82;25.03
31873;BME280;22407;42.820;23.374;2022-08-19T15:32:39;95160.23;;;35.76;24.52
31873;BME280;22407;42.820;23.374;2022-08-19T15:35:08;95169.69;;;35.72;24.78
31873;BME280;22407;42.820;23.374;2022-08-19T15:37:37;95160.66;;;35.69;24.70
31873;BME280;22407;42.820;23.374;2022-08-19T15:40:06;95164.52;;;35.55;24.64
31873;BME280;22407;42.820;23.374;2022-08-19T15:42:37;95162.82;;;35.42;24.85
31873;BME280;22407;42.820;23.374;2022-08-19T15:45:08;95163.98;;;35.25;25.08
31873;BME280;22407;42.820;23.374;2022-08-19T15:47:38;95172.45;;;35.28;25.19
31873;BME280;22407;42.820;23.374;2022-08-19T15:50:14;95172.72;;;35.29;25.18
31873;BME280;22407;42.820;23.374;2022-08-19T15:52:51;95171.18;;;35.23;25.65
31873;BME280;22407;42.820;23.374;2022-08-19T15:55:25;95169.06;;;35.18;25.50
31873;BME280;22407;42.820;23.374;2022-08-19T15:57:54;95170.08;;;35.05;25.47
31873;BME280;22407;42.820;23.374;2022-08-19T16:00:42;95166.05;;;35.00;25.50
31873;BME280;22407;42.820;23.374;2022-08-19T16:03:28;95169.37;;;35.00;25.66
31873;BME280;22407;42.820;23.374;2022-08-19T16:06:15;95174.25;;;34.89;25.72
31873;BME280;22407;42.820;23.374;2022-08-19T16:08:55;95172.36;;;34.68;25.67
31873;BME280;22407;42.820;23.374;2022-08-19T16:11:27;95172.69;;;34.45;26.10
31873;BME280;22407;42.820;23.374;2022-08-19T16:13:58;95181.23;;;34.27;26.46
31873;BME280;22407;42.820;23.374;2022-08-19T16:16:29;95178.83;;;33.99;26.46
31873;BME280;22407;42.820;23.374;2022-08-19T16:19:01;95172.20;;;33.81;26.67
31873;BME280;22407;42.820;23.374;2022-08-19T16:21:34;95170.06;;;33.48;27.38
31873;BME280;22407;42.820;23.374;2022-08-19T16:24:05;95176.37;;;33.25;27.14
31873;BME280;22407;42.820;23.374;2022-08-19T16:26:35;95169.91;;;33.10;27.49
31873;BME280;22407;42.820;23.374;2022-08-19T16:29:04;95178.00;;;32.94;28.02
31873;BME280;22407;42.820;23.374;2022-08-19T16:31:36;95174.88;;;32.77;28.15
31873;BME280;22407;42.820;23.374;2022-08-19T16:34:05;95175.48;;;32.68;28.52
31873;BME280;22407;42.820;23.374;2022-08-19T16:36:34;95174.49;;;32.51;28.54
31873;BME280;22407;42.820;23.374;2022-08-19T16:39:05;95173.75;;;32.41;28.83
31873;BME280;22407;42.820;23.374;2022-08-19T16:41:34;95173.64;;;32.14;29.24
31873;BME280;22407;42.820;23.374;2022-08-19T16:44:05;95179.98;;;32.09;29.00
31873;BME280;22407;42.820;23.374;2022-08-19T16:46:35;95177.00;;;32.03;29.21
31873;BME280;22407;42.820;23.374;2022-08-19T16:49:06;95185.83;;;31.90;29.42
31873;BME280;22407;42.820;23.374;2022-08-19T16:51:36;95184.27;;;31.71;29.64
31873;BME280;22407;42.820;23.374;2022-08-19T16:54:05;95180.98;;;31.69;29.87
31873;BME280;22407;42.820;23.374;2022-08-19T16:56:34;95184.58;;;31.59;29.92
31873;BME280;22407;42.820;23.374;2022-08-19T16:59:04;95178.59;;;31.47;30.09
31873;BME280;22407;42.820;23.374;2022-08-19T17:01:33;95186.83;;;31.31;30.33
31873;BME280;22407;42.820;23.374;2022-08-19T17:04:02;95183.83;;;31.20;30.62
31873;BME280;22407;42.820;23.374;2022-08-19T17:06:31;95189.60;;;31.06;30.92
31873;BME280;22407;42.820;23.374;2022-08-19T17:09:02;95187.16;;;30.89;31.39
31873;BME280;22407;42.820;23.374;2022-08-19T17:11:32;95194.27;;;30.80;31.67
31873;BME280;22407;42.820;23.374;2022-08-19T17:14:03;95197.30;;;30.70;31.92
31873;BME280;22407;42.820;23.374;2022-08-19T17:16:34;95204.12;;;30.53;32.42
31873;BME280;22407;42.820;23.374;2022-08-19T17:19:06;95207.66;;;30.38;32.42
31873;BME280;22407;42.820;23.374;2022-08-19T17:21:35;95209.29;;;30.39;32.73
31873;BME280;22407;42.820;23.374;2022-08-19T17:24:06;95216.08;;;30.23;32.78
31873;BME280;22407;42.820;23.374;2022-08-19T17:26:36;95219.83;;;29.97;33.28
31873;BME280;22407;42.820;23.374;2022-08-19T17:29:05;95222.27;;;29.88;33.57
31873;BME280;22407;42.820;23.374;2022-08-19T17:31:35;95226.11;;;29.92;33.45
31873;BME280;22407;42.820;23.374;2022-08-19T17:34:05;95219.53;;;29.83;33.60
31873;BME280;22407;42.820;23.374;2022-08-19T17:36:35;95223.33;;;29.79;33.65
31873;BME280;22407;42.820;23.374;2022-08-19T17:39:04;95227.30;;;29.59;34.54
31873;BME280;22407;42.820;23.374;2022-08-19T17:41:33;95230.34;;;29.60;34.22
31873;BME280;22407;42.820;23.374;2022-08-19T17:44:03;95234.07;;;29.43;34.53
31873;BME280;22407;42.820;23.374;2022-08-19T17:46:32;95229.09;;;29.33;34.52
31873;BME280;22407;42.820;23.374;2022-08-19T17:49:01;95230.48;;;29.43;34.42
31873;BME280;22407;42.820;23.374;2022-08-19T17:54:09;95239.25;;;29.45;34.62
31873;BME280;22407;42.820;23.374;2022-08-19T17:56:38;95244.63;;;29.29;35.09
31873;BME280;22407;42.820;23.374;2022-08-19T17:59:09;95240.77;;;29.20;35.18
31873;BME280;22407;42.820;23.374;2022-08-19T18:01:38;95244.42;;;29.01;35.92
31873;BME280;22407;42.820;23.374;2022-08-19T18:04:07;95243.05;;;29.01;35.95
31873;BME280;22407;42.820;23.374;2022-08-19T18:06:36;95242.83;;;29.08;35.61
31873;BME280;22407;42.820;23.374;2022-08-19T18:09:06;95243.05;;;29.01;36.22
31873;BME280;22407;42.820;23.374;2022-08-19T18:11:35;95249.02;;;28.96;36.03
31873;BME280;22407;42.820;23.374;2022-08-19T18:14:04;95244.76;;;28.78;36.57
31873;BME280;22407;42.820;23.374;2022-08-19T18:16:33;95250.22;;;28.78;36.53
31873;BME280;22407;42.820;23.374;2022-08-19T18:19:02;95252.53;;;28.61;37.40
31873;BME280;22407;42.820;23.374;2022-08-19T18:21:31;95248.25;;;28.43;38.01
31873;BME280;22407;42.820;23.374;2022-08-19T18:24:01;95249.36;;;28.45;38.13
